createdAt,value
2024-02-28T00:00:53.136Z,106.75
2024-02-28T00:03:21.724Z,108.40
2024-02-28T00:05:57.139Z,104.50
2024-02-28T00:08:25.123Z,114.63
2024-02-28T00:10:53.124Z,111.40
2024-02-28T00:13:23.293Z,112.15
2024-02-28T00:15:52.904Z,120.85
2024-02-28T00:18:26.053Z,113.90
2024-02-28T00:20:55.640Z,117.50
2024-02-28T00:23:23.331Z,111.95
2024-02-28T00:25:51.443Z,106.13
2024-02-28T00:28:20.604Z,123.88
2024-02-28T00:30:48.738Z,104.05
2024-02-28T00:33:20.963Z,110.43
2024-02-28T00:35:48.943Z,118.90
2024-02-28T00:38:15.586Z,105.88
2024-02-28T00:40:43.457Z,104.00
2024-02-28T00:43:11.258Z,113.50
2024-02-28T00:45:40.348Z,107.25
2024-02-28T00:48:08.754Z,102.03
2024-02-28T00:50:40.657Z,103.65
2024-02-28T00:53:08.598Z,107.60
2024-02-28T00:55:38.009Z,114.20
2024-02-28T00:58:06.208Z,112.07
2024-02-28T01:00:37.204Z,108.90
2024-02-28T01:03:06.258Z,115.22
2024-02-28T01:05:34.384Z,107.88
2024-02-28T01:08:03.923Z,110.20
2024-02-28T01:10:31.906Z,118.28
2024-02-28T01:13:00.121Z,109.82
2024-02-28T01:15:28.321Z,119.75
2024-02-28T01:17:56.372Z,123.13
2024-02-28T01:20:24.243Z,126.47
2024-02-28T01:22:52.021Z,133.50
2024-02-28T01:25:21.514Z,132.00
2024-02-28T01:27:52.708Z,132.57
2024-02-28T01:30:20.792Z,137.35
2024-02-28T01:32:49.431Z,125.85
2024-02-28T01:35:17.464Z,132.55
2024-02-28T01:37:45.354Z,124.82
2024-02-28T01:40:13.951Z,124.93
2024-02-28T01:42:45.496Z,129.02
2024-02-28T01:45:15.821Z,137.85
2024-02-28T01:47:44.165Z,132.07
2024-02-28T01:50:13.008Z,118.30
2024-02-28T01:52:41.675Z,129.68
2024-02-28T01:55:10.410Z,119.88
2024-02-28T01:57:39.137Z,123.88
2024-02-28T02:00:10.792Z,123.10
2024-02-28T02:02:38.710Z,117.28
2024-02-28T02:05:07.245Z,114.85
2024-02-28T02:07:36.486Z,116.60
2024-02-28T02:10:04.326Z,118.63
2024-02-28T02:12:34.274Z,126.03
2024-02-28T02:15:09.954Z,119.82
2024-02-28T02:17:39.128Z,126.00
2024-02-28T02:20:07.635Z,114.90
2024-02-28T02:22:39.861Z,121.53
2024-02-28T02:25:08.273Z,124.50
2024-02-28T02:27:36.681Z,127.63
2024-02-28T02:30:05.142Z,126.18
2024-02-28T02:32:38.931Z,120.25
2024-02-28T02:35:07.601Z,121.78
2024-02-28T02:37:35.263Z,123.22
2024-02-28T02:40:05.384Z,128.50
2024-02-28T02:42:36.206Z,113.55
2024-02-28T02:45:06.263Z,119.78
2024-02-28T02:47:34.048Z,115.20
2024-02-28T02:50:01.812Z,111.45
2024-02-28T02:52:33.871Z,111.07
2024-02-28T02:55:06.544Z,106.15
2024-02-28T02:57:35.365Z,100.20
2024-02-28T03:00:06.295Z,112.88
2024-02-28T03:02:34.307Z,112.88
2024-02-28T03:05:02.122Z,119.78
2024-02-28T03:07:32.200Z,108.35
2024-02-28T03:10:00.279Z,110.88
2024-02-28T03:12:31.547Z,120.15
2024-02-28T03:14:59.478Z,122.05
2024-02-28T03:17:27.234Z,127.38
2024-02-28T03:19:55.050Z,122.00
2024-02-28T03:22:22.879Z,131.30
2024-02-28T03:24:53.594Z,134.90
2024-02-28T03:27:21.461Z,134.30
2024-02-28T03:29:50.968Z,127.50
2024-02-28T03:32:18.675Z,120.15
2024-02-28T03:34:46.425Z,125.65
2024-02-28T03:37:14.224Z,128.48
2024-02-28T03:39:42.398Z,127.05
2024-02-28T03:42:10.415Z,121.20
2024-02-28T03:44:38.419Z,129.10
2024-02-28T03:47:08.130Z,127.55
2024-02-28T03:49:42.089Z,127.15
2024-02-28T03:52:10.225Z,135.07
2024-02-28T03:54:41.010Z,140.20
2024-02-28T03:57:08.876Z,141.15
2024-02-28T03:59:36.826Z,123.97
2024-02-28T04:02:04.741Z,127.65
2024-02-28T04:04:33.981Z,148.30
2024-02-28T04:07:01.903Z,140.48
2024-02-28T04:09:30.061Z,133.93
2024-02-28T04:11:58.041Z,137.73
2024-02-28T04:14:25.700Z,161.43
2024-02-28T04:16:53.784Z,159.70
2024-02-28T04:19:21.546Z,166.45
2024-02-28T04:21:51.072Z,146.35
2024-02-28T04:24:18.833Z,158.10
2024-02-28T04:26:49.355Z,171.45
2024-02-28T04:29:17.204Z,170.20
2024-02-28T04:31:44.890Z,172.57
2024-02-28T04:34:12.612Z,158.02
2024-02-28T04:36:43.065Z,164.10
2024-02-28T04:39:12.458Z,154.18
2024-02-28T04:41:40.146Z,164.80
2024-02-28T04:44:08.116Z,139.57
2024-02-28T04:46:36.102Z,151.98
2024-02-28T04:49:04.089Z,170.05
2024-02-28T04:51:31.872Z,153.13
2024-02-28T04:53:59.462Z,153.05
2024-02-28T04:56:30.642Z,154.90
2024-02-28T04:58:58.310Z,167.00
2024-02-28T05:01:26.101Z,169.18
2024-02-28T05:03:53.905Z,212.30
2024-02-28T05:06:21.713Z,169.38
2024-02-28T05:08:49.385Z,230.85
2024-02-28T05:11:17.074Z,233.32
2024-02-28T05:13:46.115Z,253.40
2024-02-28T05:16:17.298Z,237.82
2024-02-28T05:18:46.995Z,297.42
2024-02-28T05:21:15.089Z,397.73
2024-02-28T05:23:42.930Z,270.08
2024-02-28T05:26:10.628Z,169.55
2024-02-28T05:28:40.139Z,139.25
2024-02-28T05:31:24.593Z,115.95
2024-02-28T05:33:52.988Z,136.02
2024-02-28T05:36:21.037Z,158.88
2024-02-28T05:38:49.393Z,151.23
2024-02-28T05:41:19.014Z,148.75
2024-02-28T05:43:46.936Z,149.02
2024-02-28T05:46:16.351Z,150.55
2024-02-28T05:48:46.723Z,167.13
2024-02-28T05:51:15.716Z,166.30
2024-02-28T05:53:44.705Z,165.30
2024-02-28T05:56:15.959Z,147.85
2024-02-28T05:58:44.958Z,160.10
2024-02-28T06:01:14.330Z,151.32
2024-02-28T06:03:47.429Z,152.82
2024-02-28T06:06:25.139Z,144.35
2024-02-28T06:08:57.556Z,153.45
2024-02-28T06:11:26.759Z,179.50
2024-02-28T06:13:55.806Z,157.45
2024-02-28T06:16:26.766Z,157.05
2024-02-28T06:18:57.317Z,163.23
2024-02-28T06:21:27.733Z,163.90
2024-02-28T06:23:58.893Z,172.27
2024-02-28T06:26:27.175Z,171.27
2024-02-28T06:29:02.615Z,167.13
2024-02-28T06:31:33.026Z,170.00
2024-02-28T06:34:08.416Z,158.07
2024-02-28T06:36:38.037Z,154.98
2024-02-28T06:39:06.982Z,156.02
2024-02-28T06:41:39.294Z,138.88
2024-02-28T06:44:13.166Z,194.35
2024-02-28T06:46:45.309Z,170.47
2024-02-28T06:49:23.766Z,187.00
2024-02-28T06:51:55.376Z,163.90
2024-02-28T06:54:34.672Z,173.43
2024-02-28T06:57:14.204Z,162.10
2024-02-28T06:59:52.774Z,157.55
2024-02-28T07:02:28.258Z,168.52
2024-02-28T07:04:59.567Z,174.82
2024-02-28T07:07:31.936Z,180.10
2024-02-28T07:10:06.184Z,163.35
2024-02-28T07:12:40.693Z,160.15
2024-02-28T07:15:09.733Z,160.13
2024-02-28T07:17:43.064Z,176.00
2024-02-28T07:20:17.727Z,167.85
2024-02-28T07:22:49.209Z,177.57
2024-02-28T07:25:25.680Z,188.68
2024-02-28T07:28:06.307Z,172.68
2024-02-28T07:30:48.391Z,165.70
2024-02-28T07:33:43.136Z,171.60
2024-02-28T07:36:23.365Z,157.45
2024-02-28T07:38:58.031Z,164.32
2024-02-28T07:41:28.906Z,152.27
2024-02-28T07:44:00.706Z,169.57
2024-02-28T07:46:32.010Z,165.93
2024-02-28T07:49:02.435Z,166.95
2024-02-28T07:51:55.901Z,158.45
2024-02-28T07:54:35.666Z,166.00
2024-02-28T07:57:12.748Z,150.13
2024-02-28T07:59:42.163Z,168.65
2024-02-28T08:02:14.765Z,165.60
2024-02-28T08:04:49.784Z,166.98
2024-02-28T08:07:23.800Z,184.50
2024-02-28T08:10:04.096Z,172.52
2024-02-28T08:12:43.970Z,177.52
2024-02-28T08:15:18.818Z,180.07
2024-02-28T08:17:51.842Z,182.75
2024-02-28T08:20:46.206Z,162.57
2024-02-28T08:23:26.552Z,143.90
2024-02-28T08:25:58.200Z,152.77
2024-02-28T08:28:27.045Z,152.23
2024-02-28T08:31:06.390Z,148.50
2024-02-28T08:33:42.994Z,131.95
2024-02-28T08:36:16.179Z,137.55
2024-02-28T08:38:57.251Z,117.60
2024-02-28T08:41:32.270Z,125.50
2024-02-28T08:44:05.521Z,102.40
2024-02-28T08:46:37.154Z,107.15
2024-02-28T08:49:15.020Z,99.82
2024-02-28T08:51:55.620Z,62.30
2024-02-28T08:54:37.792Z,93.80
2024-02-28T08:57:13.739Z,100.57
2024-02-28T08:59:44.152Z,102.43
2024-02-28T09:02:21.371Z,93.40
2024-02-28T09:04:56.158Z,94.65
2024-02-28T09:07:36.456Z,85.63
2024-02-28T09:12:58.550Z,93.43
2024-02-28T09:15:28.945Z,91.70
2024-02-28T09:18:02.619Z,86.97
2024-02-28T09:20:35.543Z,76.95
2024-02-28T09:23:06.608Z,84.82
2024-02-28T09:25:41.536Z,68.90
2024-02-28T09:28:14.317Z,77.00
2024-02-28T09:30:52.785Z,69.65
2024-02-28T09:33:22.234Z,69.82
2024-02-28T09:35:55.048Z,69.60
2024-02-28T09:38:26.855Z,60.38
2024-02-28T09:41:10.066Z,66.25
2024-02-28T09:43:46.830Z,66.03
2024-02-28T09:46:19.753Z,66.85
2024-02-28T09:48:52.933Z,60.17
2024-02-28T09:51:23.078Z,64.72
2024-02-28T09:53:54.890Z,63.15
2024-02-28T09:56:42.934Z,62.47
2024-02-28T09:59:13.517Z,60.53
2024-02-28T10:01:47.583Z,64.63
2024-02-28T10:04:20.383Z,55.88
2024-02-28T10:06:54.441Z,60.00
2024-02-28T10:09:25.848Z,63.53
2024-02-28T10:11:57.753Z,61.17
2024-02-28T10:14:32.310Z,57.17
2024-02-28T10:17:01.587Z,57.10
2024-02-28T10:19:46.018Z,55.83
2024-02-28T10:22:17.763Z,55.20
2024-02-28T10:24:51.490Z,52.42
2024-02-28T10:27:23.385Z,60.97
2024-02-28T10:30:01.034Z,57.03
2024-02-28T10:32:37.435Z,54.42
2024-02-28T10:35:11.245Z,57.53
2024-02-28T10:37:41.924Z,63.58
2024-02-28T10:40:11.682Z,71.53
2024-02-28T10:42:40.921Z,70.85
2024-02-28T10:45:21.366Z,67.72
2024-02-28T10:48:04.836Z,62.92
2024-02-28T10:50:43.530Z,49.33
2024-02-28T10:53:14.600Z,54.42
2024-02-28T10:55:48.039Z,72.90
2024-02-28T10:58:25.030Z,66.00
2024-02-28T11:00:57.479Z,70.35
2024-02-28T11:03:43.750Z,58.40
2024-02-28T11:06:29.022Z,55.92
2024-02-28T11:08:58.414Z,47.35
2024-02-28T11:11:27.440Z,49.72
2024-02-28T11:13:58.948Z,54.50
2024-02-28T11:16:41.663Z,56.17
2024-02-28T11:19:11.106Z,51.28
2024-02-28T11:21:45.380Z,50.85
2024-02-28T11:24:27.749Z,55.13
2024-02-28T11:26:56.088Z,56.90
2024-02-28T11:29:33.035Z,46.20
2024-02-28T11:32:09.888Z,43.00
2024-02-28T11:34:44.328Z,51.05
2024-02-28T11:37:24.008Z,55.50
2024-02-28T11:40:03.131Z,61.53
2024-02-28T11:42:36.228Z,59.65
2024-02-28T11:45:10.513Z,60.22
2024-02-28T11:47:39.817Z,60.63
2024-02-28T11:50:22.990Z,44.20
2024-02-28T11:52:57.655Z,46.03
2024-02-28T11:55:34.504Z,60.30
2024-02-28T11:58:04.963Z,52.03
2024-02-28T12:00:45.405Z,52.45
2024-02-28T12:03:23.276Z,58.45
2024-02-28T12:05:57.407Z,54.85
2024-02-28T12:08:31.706Z,65.10
2024-02-28T12:11:13.813Z,42.47
2024-02-28T12:13:48.662Z,55.50
2024-02-28T12:16:24.856Z,50.65
2024-02-28T12:19:05.023Z,61.10
2024-02-28T12:21:44.621Z,52.83
2024-02-28T12:24:20.197Z,59.13
2024-02-28T12:26:59.724Z,56.17
2024-02-28T12:29:28.732Z,57.03
2024-02-28T12:32:27.218Z,52.03
2024-02-28T12:35:12.172Z,58.20
2024-02-28T12:37:43.008Z,59.05
2024-02-28T12:40:25.486Z,52.50
2024-02-28T12:43:08.865Z,53.08
2024-02-28T12:45:57.217Z,55.70
2024-02-28T12:48:33.249Z,50.90
2024-02-28T12:51:25.672Z,46.85
2024-02-28T12:54:00.817Z,50.42
2024-02-28T12:56:47.945Z,52.65
2024-02-28T12:59:22.377Z,49.38
2024-02-28T13:02:04.382Z,56.70
2024-02-28T13:04:39.764Z,50.63
2024-02-28T13:07:17.583Z,53.15
2024-02-28T13:09:46.592Z,45.00
2024-02-28T13:12:23.264Z,43.95
2024-02-28T13:14:52.223Z,41.10
2024-02-28T13:17:31.740Z,40.35
2024-02-28T13:20:01.826Z,39.75
2024-02-28T13:22:36.492Z,52.15
2024-02-28T13:25:16.954Z,44.08
2024-02-28T13:27:54.001Z,49.30
2024-02-28T13:30:26.201Z,42.88
2024-02-28T13:33:00.278Z,44.55
2024-02-28T13:35:31.120Z,42.60
2024-02-28T13:38:09.544Z,43.80
2024-02-28T13:40:47.206Z,43.00
2024-02-28T13:43:18.444Z,39.28
2024-02-28T13:45:54.444Z,44.92
2024-02-28T13:48:29.835Z,34.80
2024-02-28T13:51:08.138Z,31.13
2024-02-28T13:53:46.261Z,34.83
2024-02-28T13:56:20.692Z,37.55
2024-02-28T13:58:59.498Z,37.03
2024-02-28T14:01:42.613Z,39.38
2024-02-28T14:04:26.182Z,41.50
2024-02-28T14:06:59.315Z,38.25
2024-02-28T14:09:35.539Z,41.05
2024-02-28T14:12:09.395Z,38.97
2024-02-28T14:14:41.004Z,36.38
2024-02-28T14:17:12.754Z,39.03
2024-02-28T14:19:41.655Z,37.58
2024-02-28T14:22:15.322Z,41.88
2024-02-28T14:24:49.373Z,36.22
2024-02-28T14:27:20.904Z,37.20
2024-02-28T14:29:49.549Z,33.08
2024-02-28T14:32:22.006Z,27.95
2024-02-28T14:34:53.517Z,15.70
2024-02-28T14:37:22.306Z,20.52
2024-02-28T14:40:02.192Z,30.80
2024-02-28T14:42:37.386Z,36.40
2024-02-28T14:45:06.908Z,34.67
2024-02-28T14:47:38.389Z,10.25
2024-02-28T14:50:17.743Z,32.30
2024-02-28T14:52:50.175Z,32.42
2024-02-28T14:55:20.085Z,34.67
2024-02-28T14:57:53.823Z,31.95
2024-02-28T15:00:22.628Z,36.05
2024-02-28T15:03:02.100Z,33.15
2024-02-28T15:05:32.284Z,33.42
2024-02-28T15:08:03.736Z,36.03
2024-02-28T15:10:37.622Z,30.05
2024-02-28T15:13:09.996Z,33.40
2024-02-28T15:15:42.446Z,37.60
2024-02-28T15:18:24.383Z,33.92
2024-02-28T15:20:58.187Z,32.63
2024-02-28T15:23:31.814Z,33.22
2024-02-28T15:26:07.922Z,31.38
2024-02-28T15:28:37.820Z,36.17
2024-02-28T15:31:22.774Z,33.08
2024-02-28T15:33:51.428Z,33.78
2024-02-28T15:36:20.203Z,32.20
2024-02-28T15:38:58.333Z,39.33
2024-02-28T15:41:38.203Z,32.33
2024-02-28T15:44:14.250Z,36.83
2024-02-28T15:46:48.180Z,30.30
2024-02-28T15:49:22.497Z,36.27
2024-02-28T15:52:02.559Z,34.42
2024-02-28T15:54:33.554Z,33.80
2024-02-28T15:57:06.009Z,36.72
2024-02-28T15:59:44.103Z,38.17
2024-02-28T16:02:12.598Z,37.42
2024-02-28T16:04:49.899Z,38.22
2024-02-28T16:07:22.271Z,38.35
2024-02-28T16:10:00.131Z,36.00
2024-02-28T16:12:32.714Z,36.42
2024-02-28T16:15:04.714Z,36.05
2024-02-28T16:17:51.137Z,35.40
2024-02-28T16:20:22.367Z,37.13
2024-02-28T16:22:54.331Z,42.75
2024-02-28T16:25:41.178Z,36.53
2024-02-28T16:28:15.212Z,36.92
2024-02-28T16:30:49.054Z,38.63
2024-02-28T16:33:32.500Z,37.35
2024-02-28T16:36:02.786Z,35.95
2024-02-28T16:38:55.001Z,45.25
2024-02-28T16:41:35.009Z,38.72
2024-02-28T16:44:21.130Z,40.38
2024-02-28T16:47:14.327Z,42.33
2024-02-28T16:49:49.453Z,44.65
2024-02-28T16:52:21.066Z,38.95
2024-02-28T16:54:57.139Z,39.35
2024-02-28T16:57:25.605Z,39.33
2024-02-28T16:59:55.406Z,42.92
2024-02-28T17:02:25.164Z,39.25
2024-02-28T17:04:58.893Z,65.00
2024-02-28T17:07:26.791Z,39.65
2024-02-28T17:09:54.882Z,46.35
2024-02-28T17:12:30.434Z,42.90
2024-02-28T17:15:02.432Z,41.00
2024-02-28T17:17:32.210Z,38.35
2024-02-28T17:20:01.388Z,37.78
2024-02-28T17:22:29.455Z,40.92
2024-02-28T17:24:57.696Z,34.53
2024-02-28T17:27:26.207Z,41.90
2024-02-28T17:29:56.701Z,39.20
2024-02-28T17:32:28.377Z,39.78
2024-02-28T17:34:56.589Z,37.03
2024-02-28T17:37:24.608Z,40.53
2024-02-28T17:39:54.064Z,38.30
2024-02-28T17:42:22.279Z,43.92
2024-02-28T17:44:51.702Z,43.50
2024-02-28T17:47:20.056Z,42.05
2024-02-28T17:49:49.285Z,45.35
2024-02-28T17:52:17.702Z,40.80
2024-02-28T17:54:47.935Z,45.13
2024-02-28T17:57:17.306Z,39.38
2024-02-28T17:59:47.072Z,43.83
2024-02-28T18:02:15.256Z,35.65
2024-02-28T18:04:43.228Z,35.75
2024-02-28T18:07:15.479Z,36.63
2024-02-28T18:09:43.796Z,37.65
2024-02-28T18:12:12.083Z,34.05
2024-02-28T18:14:40.555Z,32.88
2024-02-28T18:17:15.893Z,37.95
2024-02-28T18:19:44.124Z,32.85
2024-02-28T18:22:13.845Z,40.63
2024-02-28T18:24:42.374Z,37.83
2024-02-28T18:27:11.966Z,34.92
2024-02-28T18:29:40.457Z,34.67
2024-02-28T18:32:09.235Z,31.85
2024-02-28T18:34:37.850Z,37.83
2024-02-28T18:37:10.423Z,36.47
2024-02-28T18:39:42.653Z,35.47
2024-02-28T18:42:12.120Z,35.10
2024-02-28T18:44:44.491Z,32.47
2024-02-28T18:47:15.741Z,38.58
2024-02-28T18:49:44.423Z,30.58
2024-02-28T18:52:15.700Z,30.80
2024-02-28T18:54:45.837Z,31.38
2024-02-28T18:57:19.673Z,30.70
2024-02-28T18:59:49.837Z,29.10
2024-02-28T19:02:22.522Z,30.73
2024-02-28T19:04:54.764Z,30.70
2024-02-28T19:07:24.290Z,36.38
2024-02-28T19:09:56.698Z,31.83
2024-02-28T19:12:25.060Z,30.80
2024-02-28T19:14:54.258Z,27.45
2024-02-28T19:17:23.221Z,31.50
2024-02-28T19:19:51.650Z,27.48
2024-02-28T19:22:24.452Z,28.58
2024-02-28T19:24:56.489Z,28.00
2024-02-28T19:27:26.310Z,28.70
2024-02-28T19:30:00.081Z,29.30
2024-02-28T19:32:28.790Z,30.38
2024-02-28T19:34:56.990Z,36.45
2024-02-28T19:37:27.553Z,33.35
2024-02-28T19:40:08.661Z,27.65
2024-02-28T19:42:37.424Z,30.30
2024-02-28T19:45:08.009Z,28.38
2024-02-28T19:47:36.519Z,32.92
2024-02-28T19:50:05.209Z,35.00
2024-02-28T19:52:33.291Z,30.98
2024-02-28T19:55:06.357Z,54.30
2024-02-28T19:57:36.807Z,44.42
2024-02-28T20:00:12.530Z,36.10
2024-02-28T20:02:40.859Z,52.95
2024-02-28T20:05:11.471Z,33.28
2024-02-28T20:07:39.691Z,33.40
2024-02-28T20:10:10.938Z,23.35
2024-02-28T20:12:39.070Z,25.15
2024-02-28T20:15:07.651Z,22.38
2024-02-28T20:17:35.908Z,21.90
2024-02-28T20:20:04.546Z,20.75
2024-02-28T20:22:32.563Z,20.67
2024-02-28T20:25:01.014Z,17.20
2024-02-28T20:27:34.346Z,19.50
2024-02-28T20:30:02.468Z,21.13
2024-02-28T20:32:33.453Z,14.00
2024-02-28T20:35:01.618Z,14.98
2024-02-28T20:37:32.000Z,14.77
2024-02-28T20:40:05.158Z,14.27
2024-02-28T20:42:36.786Z,12.75
2024-02-28T20:45:06.220Z,12.20
2024-02-28T20:47:36.181Z,8.82
2024-02-28T20:50:07.841Z,10.02
2024-02-28T20:52:39.270Z,11.90
2024-02-28T20:55:08.239Z,10.38
2024-02-28T20:57:45.262Z,14.45
2024-02-28T21:00:14.311Z,16.05
2024-02-28T21:02:43.579Z,12.63
2024-02-28T21:05:12.601Z,11.85
2024-02-28T21:07:48.520Z,12.65
2024-02-28T21:10:21.106Z,13.30
2024-02-28T21:12:50.375Z,14.57
2024-02-28T21:15:18.734Z,12.88
2024-02-28T21:17:46.644Z,14.77
2024-02-28T21:20:14.883Z,19.85
2024-02-28T21:22:47.434Z,14.30
2024-02-28T21:25:19.021Z,13.20
2024-02-28T21:27:46.981Z,15.73
2024-02-28T21:30:18.827Z,12.85
2024-02-28T21:32:47.095Z,12.32
2024-02-28T21:35:18.205Z,19.05
2024-02-28T21:37:47.602Z,13.10
2024-02-28T21:40:17.510Z,10.63
2024-02-28T21:42:45.550Z,13.20
2024-02-28T21:45:16.818Z,13.30
2024-02-28T21:47:46.412Z,13.88
2024-02-28T21:50:14.175Z,14.20
2024-02-28T21:52:42.191Z,12.90
2024-02-28T21:55:10.742Z,14.13
2024-02-28T21:57:42.423Z,13.05
2024-02-28T22:00:16.600Z,11.45
2024-02-28T22:02:47.337Z,13.32
2024-02-28T22:05:16.783Z,12.75
2024-02-28T22:07:44.885Z,16.05
2024-02-28T22:10:15.274Z,14.68
2024-02-28T22:12:45.533Z,15.52
2024-02-28T22:15:15.097Z,15.13
2024-02-28T22:17:45.415Z,15.00
2024-02-28T22:20:13.381Z,12.82
2024-02-28T22:22:45.323Z,12.70
2024-02-28T22:25:16.043Z,13.05
2024-02-28T22:27:44.182Z,15.00
2024-02-28T22:30:12.800Z,14.20
2024-02-28T22:32:40.753Z,19.83
2024-02-28T22:35:09.151Z,17.42
2024-02-28T22:37:37.235Z,13.93
2024-02-28T22:40:08.104Z,18.77
2024-02-28T22:42:36.032Z,15.13
2024-02-28T22:45:07.900Z,15.85
2024-02-28T22:47:35.938Z,14.63
2024-02-28T22:50:04.026Z,18.20
2024-02-28T22:52:32.029Z,15.68
2024-02-28T22:54:59.981Z,16.50
2024-02-28T22:57:29.881Z,15.45
2024-02-28T22:59:57.829Z,15.85
2024-02-28T23:02:27.504Z,16.67
2024-02-28T23:04:58.370Z,14.30
2024-02-28T23:07:26.488Z,17.67
2024-02-28T23:09:57.346Z,15.13
2024-02-28T23:12:25.129Z,16.60
2024-02-28T23:14:56.700Z,16.05
2024-02-28T23:17:24.555Z,16.27
2024-02-28T23:19:52.307Z,21.17
2024-02-28T23:22:20.274Z,16.52
2024-02-28T23:24:48.085Z,15.82
2024-02-28T23:27:18.303Z,17.52
2024-02-28T23:29:46.008Z,16.75
2024-02-28T23:32:15.160Z,15.38
2024-02-28T23:34:43.056Z,15.25
2024-02-28T23:37:11.027Z,15.10
2024-02-28T23:39:40.325Z,12.80
2024-02-28T23:42:08.224Z,12.95
2024-02-28T23:44:36.235Z,13.52
2024-02-28T23:47:03.930Z,15.23
2024-02-28T23:49:32.992Z,13.50
2024-02-28T23:52:01.424Z,13.75
2024-02-28T23:54:29.665Z,16.05
2024-02-28T23:56:57.672Z,10.32
2024-02-28T23:59:28.442Z,12.57
